createdAt,value
2022-08-19T00:02:27.350Z,49.33
2022-08-19T00:07:58.717Z,49.01
2022-08-19T00:13:30.359Z,49.09
2022-08-19T00:19:01.831Z,48.87
2022-08-19T00:24:33.701Z,49.08
2022-08-19T00:30:07.497Z,49.09
2022-08-19T00:35:39.729Z,48.74
2022-08-19T00:41:14.498Z,49.01
2022-08-19T00:46:55.390Z,48.87
2022-08-19T00:52:34.147Z,48.79
2022-08-19T00:58:08.969Z,49.28
2022-08-19T01:03:56.872Z,49.20
2022-08-19T01:09:31.030Z,50.15
2022-08-19T01:15:03.060Z,50.81
2022-08-19T01:20:35.810Z,50.57
2022-08-19T01:26:07.817Z,50.54
2022-08-19T01:31:40.469Z,50.64
2022-08-19T01:37:13.160Z,50.26
2022-08-19T01:42:44.372Z,50.44
2022-08-19T01:48:16.226Z,50.96
2022-08-19T01:53:52.293Z,51.13
2022-08-19T01:59:24.520Z,51.32
2022-08-19T02:04:55.657Z,51.41
2022-08-19T02:10:27.844Z,51.61
2022-08-19T02:15:59.173Z,51.59
2022-08-19T02:21:31.302Z,50.98
2022-08-19T02:27:02.561Z,51.19
2022-08-19T02:32:33.543Z,51.51
2022-08-19T02:38:26.478Z,51.50
2022-08-19T02:44:30.358Z,51.68
2022-08-19T02:49:53.521Z,51.68
2022-08-19T02:55:24.929Z,51.99
2022-08-19T03:00:57.785Z,51.91
2022-08-19T03:06:29.315Z,52.04
2022-08-19T03:12:00.897Z,52.03
2022-08-19T03:17:32.398Z,51.87
2022-08-19T03:23:03.543Z,51.80
2022-08-19T03:28:35.271Z,51.71
2022-08-19T03:34:08.047Z,51.80
2022-08-19T03:39:39.839Z,51.59
2022-08-19T03:45:11.622Z,51.81
2022-08-19T03:50:42.930Z,51.89
2022-08-19T03:56:15.502Z,52.03
2022-08-19T04:01:46.956Z,51.66
2022-08-19T04:07:22.490Z,52.03
2022-08-19T04:12:53.692Z,52.15
2022-08-19T04:18:25.317Z,52.11
2022-08-19T04:23:57.318Z,56.81
2022-08-19T04:29:28.505Z,59.08
2022-08-19T04:35:02.176Z,60.64
2022-08-19T04:41:10.245Z,61.85
2022-08-19T04:46:50.919Z,62.38
2022-08-19T04:52:22.907Z,62.61
2022-08-19T04:57:55.756Z,62.68
2022-08-19T05:03:30.562Z,60.37
2022-08-19T05:09:33.115Z,62.60
2022-08-19T05:15:22.878Z,62.87
2022-08-19T05:21:12.585Z,63.46
2022-08-19T05:26:47.525Z,63.77
2022-08-19T05:32:18.916Z,63.58
2022-08-19T05:37:50.050Z,64.17
2022-08-19T05:43:26.655Z,64.59
2022-08-19T05:48:57.703Z,64.17
2022-08-19T05:54:29.185Z,64.27
2022-08-19T06:00:02.963Z,64.55
2022-08-19T06:05:49.589Z,64.85
2022-08-19T06:11:46.893Z,64.45
2022-08-19T06:17:20.645Z,64.50
2022-08-19T06:22:52.803Z,64.77
2022-08-19T06:28:24.906Z,64.37
2022-08-19T06:33:56.430Z,63.97
2022-08-19T06:39:32.443Z,64.10
2022-08-19T06:45:09.197Z,64.34
2022-08-19T06:50:41.027Z,64.25
2022-08-19T06:56:12.596Z,63.90
2022-08-19T07:01:50.024Z,63.42
2022-08-19T07:07:29.024Z,63.90
2022-08-19T07:13:04.839Z,63.63
2022-08-19T07:18:40.373Z,63.41
2022-08-19T07:24:17.493Z,63.83
2022-08-19T07:29:48.913Z,63.23
2022-08-19T07:35:29.762Z,63.72
2022-08-19T07:41:02.016Z,63.54
2022-08-19T07:46:33.429Z,62.24
2022-08-19T07:52:08.369Z,62.58
2022-08-19T07:57:40.175Z,61.70
2022-08-19T08:03:11.762Z,61.33
2022-08-19T08:09:11.123Z,62.09
2022-08-19T08:14:50.289Z,61.76
2022-08-19T08:20:31.306Z,61.37
2022-08-19T08:26:04.229Z,59.96
2022-08-19T08:31:35.482Z,60.30
2022-08-19T08:37:07.296Z,61.23
2022-08-19T08:42:45.414Z,62.49
2022-08-19T08:48:24.427Z,61.66
2022-08-19T08:54:01.039Z,61.88
2022-08-19T08:59:37.110Z,62.25
2022-08-19T09:05:16.454Z,62.41
2022-08-19T09:10:55.217Z,61.28
2022-08-19T09:16:28.880Z,62.06
2022-08-19T09:22:01.887Z,60.75
2022-08-19T09:27:42.505Z,60.77
2022-08-19T09:33:15.048Z,61.02
2022-08-19T09:38:46.874Z,61.61
2022-08-19T09:44:21.952Z,62.36
2022-08-19T09:49:53.689Z,61.52
2022-08-19T09:55:31.983Z,61.17
2022-08-19T10:01:06.373Z,60.87
2022-08-19T10:06:46.921Z,60.69
2022-08-19T10:12:20.430Z,60.41
2022-08-19T10:17:55.211Z,60.96
2022-08-19T10:23:27.185Z,60.95
2022-08-19T10:29:09.306Z,60.88
2022-08-19T10:34:48.700Z,60.20
2022-08-19T10:40:20.520Z,59.86
2022-08-19T10:45:59.627Z,59.22
2022-08-19T10:51:51.068Z,59.71
2022-08-19T10:57:27.927Z,60.18
2022-08-19T11:03:08.041Z,60.40
2022-08-19T11:08:41.143Z,60.37
2022-08-19T11:14:15.209Z,60.74
2022-08-19T11:19:46.340Z,61.11
2022-08-19T11:25:17.552Z,60.72
2022-08-19T11:30:48.902Z,60.80
2022-08-19T11:36:22.025Z,60.15
2022-08-19T11:41:53.671Z,60.13
2022-08-19T11:47:25.238Z,58.61
2022-08-19T11:52:57.789Z,58.23
2022-08-19T11:58:34.273Z,59.15
2022-08-19T12:04:06.396Z,58.72
2022-08-19T12:09:39.742Z,58.53
2022-08-19T12:15:15.624Z,57.85
2022-08-19T12:20:48.713Z,56.76
2022-08-19T12:26:21.495Z,56.33
2022-08-19T12:31:53.645Z,57.01
2022-08-19T12:37:27.788Z,56.66
2022-08-19T12:42:58.947Z,56.36
2022-08-19T12:48:34.855Z,56.36
2022-08-19T12:54:07.818Z,56.21
2022-08-19T12:59:44.405Z,56.54
2022-08-19T13:05:26.567Z,56.58
2022-08-19T13:10:59.630Z,56.46
2022-08-19T13:16:31.933Z,56.11
2022-08-19T13:22:03.643Z,56.35
2022-08-19T13:27:35.649Z,55.67
2022-08-19T13:33:16.288Z,54.80
2022-08-19T13:38:48.483Z,55.22
2022-08-19T13:44:20.733Z,55.47
2022-08-19T13:49:52.260Z,55.14
2022-08-19T13:55:28.052Z,55.34
2022-08-19T14:01:04.950Z,55.71
2022-08-19T14:06:41.122Z,54.83
2022-08-19T14:12:14.400Z,54.94
2022-08-19T14:17:47.864Z,54.57
2022-08-19T14:23:21.358Z,54.34
2022-08-19T14:28:53.445Z,53.59
2022-08-19T14:34:24.830Z,53.95
2022-08-19T14:39:56.605Z,53.32
2022-08-19T14:45:29.551Z,51.83
2022-08-19T14:51:10.279Z,51.42
2022-08-19T14:57:00.585Z,52.82
2022-08-19T15:02:35.555Z,53.97
2022-08-19T15:08:09.295Z,53.33
2022-08-19T15:13:40.877Z,53.73
2022-08-19T15:19:13.188Z,53.43
2022-08-19T15:24:47.802Z,53.43
2022-08-19T15:30:25.697Z,53.41
2022-08-19T15:35:58.446Z,53.73
2022-08-19T15:41:31.523Z,54.10
2022-08-19T15:47:02.688Z,54.06
2022-08-19T15:52:33.859Z,53.52
2022-08-19T15:58:30.020Z,53.00
2022-08-19T16:04:20.796Z,53.15
2022-08-19T16:09:52.415Z,52.65
2022-08-19T16:15:23.928Z,52.70
2022-08-19T16:20:54.891Z,52.67
2022-08-19T16:26:31.064Z,53.51
2022-08-19T16:32:13.197Z,53.27
2022-08-19T16:37:45.059Z,53.69
2022-08-19T16:43:16.381Z,53.79
2022-08-19T16:48:47.968Z,53.92
2022-08-19T16:54:19.062Z,53.98
2022-08-19T16:59:52.566Z,54.56
2022-08-19T17:05:23.762Z,54.22
2022-08-19T17:11:17.069Z,54.95
2022-08-19T17:16:47.967Z,54.60
2022-08-19T17:22:19.252Z,54.05
2022-08-19T17:27:51.758Z,53.65
2022-08-19T17:33:23.894Z,53.54
2022-08-19T17:38:56.244Z,53.51
2022-08-19T17:44:27.204Z,53.45
2022-08-19T17:49:58.257Z,53.59
2022-08-19T17:55:29.311Z,53.83
2022-08-19T18:01:02.792Z,54.15
2022-08-19T18:06:36.848Z,54.50
2022-08-19T18:12:10.039Z,54.74
2022-08-19T18:17:41.966Z,55.13
2022-08-19T18:23:44.928Z,55.39
2022-08-19T18:29:05.018Z,55.55
2022-08-19T18:34:36.991Z,55.96
2022-08-19T18:40:27.795Z,55.74
2022-08-19T18:46:17.436Z,55.88
2022-08-19T18:51:49.731Z,55.76
2022-08-19T18:57:25.173Z,55.56
2022-08-19T19:02:57.882Z,56.06
2022-08-19T19:08:28.937Z,55.86
2022-08-19T19:14:03.931Z,55.91
2022-08-19T19:19:35.526Z,56.06
2022-08-19T19:25:08.435Z,55.75
2022-08-19T19:30:39.673Z,56.04
2022-08-19T19:36:11.567Z,56.25
2022-08-19T19:41:43.087Z,56.20
2022-08-19T19:47:15.776Z,55.83
2022-08-19T19:52:47.536Z,56.22
2022-08-19T19:58:18.937Z,55.99
2022-08-19T20:03:55.343Z,56.01
2022-08-19T20:09:43.688Z,55.68
2022-08-19T20:15:18.036Z,55.46
2022-08-19T20:20:50.350Z,55.85
2022-08-19T20:26:32.481Z,55.09
2022-08-19T20:32:05.433Z,55.47
2022-08-19T20:37:37.587Z,54.93
2022-08-19T20:43:11.134Z,55.64
2022-08-19T20:48:43.125Z,55.04
2022-08-19T20:54:15.097Z,55.05
2022-08-19T20:59:46.262Z,55.27
2022-08-19T21:05:17.416Z,55.32
2022-08-19T21:10:50.813Z,54.87
2022-08-19T21:16:22.312Z,54.93
2022-08-19T21:21:53.700Z,54.82
2022-08-19T21:27:25.070Z,55.21
2022-08-19T21:32:56.372Z,54.79
2022-08-19T21:38:27.731Z,54.96
2022-08-19T21:43:58.873Z,54.65
2022-08-19T21:49:30.132Z,54.79
2022-08-19T21:55:07.038Z,54.77
2022-08-19T22:00:39.444Z,54.63
2022-08-19T22:06:11.066Z,54.84
2022-08-19T22:11:43.666Z,54.77
2022-08-19T22:17:14.874Z,54.96
2022-08-19T22:22:50.159Z,55.19
2022-08-19T22:28:27.853Z,54.68
2022-08-19T22:33:59.500Z,55.17
2022-08-19T22:39:30.799Z,55.25
2022-08-19T22:45:02.003Z,55.12
2022-08-19T22:50:33.149Z,55.13
2022-08-19T22:56:06.082Z,55.06
2022-08-19T23:01:37.448Z,55.28
2022-08-19T23:07:09.497Z,55.16
2022-08-19T23:12:45.257Z,54.88
2022-08-19T23:18:16.594Z,55.17
2022-08-19T23:23:48.041Z,55.68
2022-08-19T23:29:37.756Z,55.33
2022-08-19T23:35:09.182Z,55.57
2022-08-19T23:40:40.584Z,55.74
2022-08-19T23:46:13.534Z,55.79
2022-08-19T23:51:44.800Z,55.75
2022-08-19T23:57:15.871Z,55.74
